Time;durP1;ratioP1;P1;durP2;ratioP2;P2;SDS_P1;SDS_P2;PMS_P1;PMS_P2;Temp;Humidity;BMP_temperature;BMP_pressure;BME280_temperature;BME280_humidity;BME280_pressure;Samples;Min_cycle;Max_cycle;Signal;HPM_P1;HPM_P2
2021/12/29 00:00:26;;;;;;;11.88;1.20;;;8.20;99.90;;;7.09;100.00;96352.75;4966782;28;20158;-69
2021/12/29 00:02:55;;;;;;;13.63;1.97;;;8.20;99.90;;;7.12;100.00;96342.31;4968504;28;20230;-69
2021/12/29 00:05:24;;;;;;;13.10;2.20;;;8.10;99.90;;;7.07;100.00;96364.88;4970249;28;20571;-69
2021/12/29 00:07:52;;;;;;;10.63;1.67;;;8.10;99.90;;;7.16;100.00;96371.34;4952310;28;20046;-69
2021/12/29 00:10:19;;;;;;;11.30;1.67;;;8.10;99.90;;;7.03;100.00;96369.38;4937266;28;20062;-69
2021/12/29 00:12:51;;;;;;;14.23;2.13;;;8.10;99.90;;;7.07;100.00;96368.31;4969267;28;20055;-69
2021/12/29 00:15:25;;;;;;;10.25;1.42;;;8.10;99.90;;;7.07;100.00;96377.78;4969478;28;20693;-69
2021/12/29 00:17:55;;;;;;;10.98;1.88;;;8.10;99.90;;;7.09;100.00;96361.34;4967446;28;20468;-69
2021/12/29 00:20:29;;;;;;;7.88;1.58;;;8.10;99.90;;;7.09;100.00;96373.38;4968161;28;20527;-69
2021/12/29 00:23:04;;;;;;;10.40;1.45;;;8.20;99.90;;;7.07;100.00;96370.03;4969666;28;20490;-69
2021/12/29 00:25:32;;;;;;;9.00;1.45;;;8.10;99.90;;;6.99;100.00;96374.75;4968622;28;20051;-69
2021/12/29 00:28:01;;;;;;;7.40;1.00;;;8.20;99.90;;;7.06;100.00;96386.44;4968348;28;20062;-69
2021/12/29 00:30:29;;;;;;;5.97;1.15;;;8.20;99.90;;;7.06;100.00;96399.34;4966356;28;20050;-69
2021/12/29 00:32:58;;;;;;;10.52;1.48;;;8.20;99.90;;;6.98;100.00;96406.59;4949169;28;20375;-69
2021/12/29 00:35:26;;;;;;;11.43;1.55;;;8.10;99.90;;;7.00;100.00;96425.44;4967525;28;20051;-69
2021/12/29 00:37:53;;;;;;;10.60;1.40;;;8.00;99.90;;;6.98;100.00;96409.19;4971036;28;20179;-69
2021/12/29 00:40:20;;;;;;;8.88;1.65;;;8.00;99.90;;;6.94;100.00;96431.72;4967946;28;20117;-69
2021/12/29 00:42:48;;;;;;;12.15;1.70;;;8.00;99.90;;;6.91;100.00;96424.97;4968810;28;20043;-70
2021/12/29 00:45:16;;;;;;;12.05;1.75;;;8.00;99.90;;;6.92;100.00;96433.53;4966796;28;20071;-69
2021/12/29 00:47:44;;;;;;;15.60;1.90;;;8.00;99.90;;;6.95;100.00;96448.03;4969349;28;20050;-69
2021/12/29 00:50:15;;;;;;;10.27;1.90;;;8.00;99.90;;;6.86;100.00;96432.06;4966335;28;20134;-69
2021/12/29 00:52:45;;;;;;;9.88;1.55;;;7.90;99.90;;;6.95;100.00;96437.72;4969159;28;20288;-69
2021/12/29 00:55:17;;;;;;;14.43;2.58;;;7.90;99.90;;;6.94;100.00;96447.22;4967766;28;20042;-69
2021/12/29 00:57:45;;;;;;;8.10;1.73;;;7.90;99.90;;;6.83;100.00;96459.75;4969784;28;20523;-69
2021/12/29 01:00:17;;;;;;;10.38;1.15;;;7.90;99.90;;;6.86;100.00;96480.25;4967000;28;20055;-69
2021/12/29 01:02:45;;;;;;;10.27;1.50;;;7.90;99.90;;;6.94;100.00;96475.59;4965510;28;20082;-69
2021/12/29 01:05:14;;;;;;;9.13;1.23;;;7.90;99.90;;;6.89;100.00;96474.97;4967874;28;20424;-69
2021/12/29 01:07:44;;;;;;;7.32;1.50;;;7.80;99.90;;;6.83;100.00;96488.13;4963838;28;20449;-69
2021/12/29 01:10:14;;;;;;;10.30;1.67;;;7.90;99.90;;;6.73;100.00;96472.25;4967368;28;20145;-69
2021/12/29 01:12:53;;;;;;;6.85;1.23;;;7.90;99.90;;;6.75;100.00;96464.41;4967403;28;20047;-69
2021/12/29 01:15:27;;;;;;;7.57;1.33;;;7.80;99.90;;;6.79;100.00;96478.84;4967724;28;20090;-69
2021/12/29 01:17:56;;;;;;;7.95;1.20;;;7.80;99.90;;;6.85;100.00;96481.16;4968840;28;20117;-69
2021/12/29 01:20:25;;;;;;;6.50;1.33;;;7.70;99.90;;;6.75;100.00;96496.22;4967929;28;20400;-70
2021/12/29 01:22:52;;;;;;;7.40;1.27;;;7.70;99.90;;;6.77;100.00;96507.28;4965681;28;20059;-69
2021/12/29 01:25:21;;;;;;;8.60;1.40;;;7.80;99.90;;;6.69;100.00;96517.13;4968168;28;20051;-69
2021/12/29 01:27:49;;;;;;;6.50;1.48;;;7.80;99.90;;;6.76;100.00;96518.50;4967594;28;20043;-70
2021/12/29 01:30:18;;;;;;;12.38;2.28;;;7.80;99.90;;;6.75;100.00;96531.47;4965277;28;20554;-69
2021/12/29 01:32:45;;;;;;;11.68;1.60;;;7.80;99.90;;;6.80;100.00;96526.97;4973045;28;20050;-70
2021/12/29 01:35:13;;;;;;;12.02;1.60;;;7.80;99.90;;;6.69;100.00;96550.63;4973097;28;20082;-69
2021/12/29 01:37:41;;;;;;;6.63;1.38;;;7.80;99.90;;;6.76;100.00;96557.19;4977413;28;20046;-69
2021/12/29 01:40:14;;;;;;;8.50;1.17;;;7.80;99.90;;;6.83;100.00;96553.44;4967697;28;20046;-69
2021/12/29 01:42:44;;;;;;;13.40;1.55;;;7.80;99.90;;;6.82;100.00;96556.06;4968358;28;20067;-69
2021/12/29 01:45:12;;;;;;;10.38;1.20;;;7.80;99.90;;;6.70;100.00;96568.63;4968370;28;20054;-69
2021/12/29 01:47:41;;;;;;;13.65;2.45;;;7.80;99.90;;;6.82;100.00;96567.25;4967139;28;20319;-69
2021/12/29 01:50:11;;;;;;;8.73;1.45;;;7.70;99.90;;;6.76;100.00;96564.09;4968028;28;20043;-70
2021/12/29 01:52:41;;;;;;;10.65;2.00;;;7.80;99.90;;;6.74;100.00;96579.63;4967226;28;20053;-69
2021/12/29 01:55:15;;;;;;;9.77;1.50;;;7.70;99.90;;;6.77;100.00;96551.13;4970976;28;20081;-70
2021/12/29 01:57:43;;;;;;;11.40;1.58;;;7.80;99.90;;;6.76;100.00;96574.41;4965463;28;20248;-69
2021/12/29 02:00:17;;;;;;;7.28;0.98;;;7.90;99.90;;;6.81;100.00;96575.06;4966935;28;20134;-69
2021/12/29 02:02:46;;;;;;;11.70;1.70;;;7.80;99.90;;;6.74;100.00;96578.81;4968639;28;20039;-69
2021/12/29 02:05:14;;;;;;;5.45;0.95;;;7.80;99.90;;;6.78;100.00;96599.25;4971252;28;20039;-69
2021/12/29 02:07:43;;;;;;;6.45;1.30;;;7.80;99.90;;;6.83;100.00;96599.88;4971599;28;20398;-69
2021/12/29 02:10:15;;;;;;;11.27;1.50;;;7.80;99.90;;;6.83;100.00;96599.03;4967740;28;20057;-69
2021/12/29 02:12:43;;;;;;;9.98;1.20;;;7.80;99.90;;;6.76;100.00;96611.34;4969921;28;20059;-69
2021/12/29 02:15:12;;;;;;;10.70;1.45;;;7.80;99.90;;;6.77;100.00;96617.34;4965326;28;20090;-69
2021/12/29 02:17:41;;;;;;;9.32;1.30;;;7.80;99.90;;;6.74;100.00;96620.06;4969796;28;20492;-69
2021/12/29 02:20:12;;;;;;;10.35;1.52;;;7.80;99.90;;;6.77;100.00;96615.59;4969839;28;20051;-69
2021/12/29 02:22:47;;;;;;;9.93;1.42;;;7.80;99.90;;;6.77;100.00;96618.19;4971401;28;20141;-69
2021/12/29 02:27:55;;;;;;;10.85;1.20;;;7.70;99.90;;;6.74;100.00;96626.06;4964808;28;20468;-70
2021/12/29 02:30:27;;;;;;;13.48;2.05;;;7.70;99.90;;;6.67;100.00;96630.63;4966041;28;20120;-69
2021/12/29 02:32:57;;;;;;;6.70;0.80;;;7.70;99.90;;;6.73;100.00;96655.34;4952395;28;20051;-69
2021/12/29 02:35:26;;;;;;;7.10;1.00;;;7.70;99.90;;;6.73;100.00;96652.75;4971886;28;20050;-69
2021/12/29 02:37:59;;;;;;;7.57;1.40;;;7.70;99.90;;;6.68;100.00;96645.22;4971845;28;20220;-69
2021/12/29 02:40:29;;;;;;;9.05;1.23;;;7.70;99.90;;;6.73;100.00;96649.31;4970290;28;20057;-69
2021/12/29 02:42:56;;;;;;;6.93;1.02;;;7.70;99.90;;;6.68;100.00;96660.69;4968819;28;20046;-69
2021/12/29 02:45:26;;;;;;;7.70;1.80;;;7.70;99.90;;;6.73;100.00;96657.06;4969794;28;20039;-69
2021/12/29 02:47:55;;;;;;;7.57;1.40;;;7.70;99.90;;;6.69;100.00;96674.41;4965462;28;20067;-69
2021/12/29 02:50:27;;;;;;;6.88;1.45;;;7.70;99.90;;;6.78;100.00;96663.72;4970046;28;20074;-69
2021/12/29 02:52:54;;;;;;;7.63;1.00;;;7.70;99.90;;;6.70;100.00;96673.50;4971674;28;20136;-69
2021/12/29 02:55:22;;;;;;;6.97;1.27;;;7.70;99.90;;;6.70;100.00;96670.94;4974506;28;20138;-69
2021/12/29 02:57:49;;;;;;;8.07;1.35;;;7.70;99.90;;;6.72;100.00;96670.88;4973047;28;20054;-69
2021/12/29 03:00:17;;;;;;;8.13;1.23;;;7.70;99.90;;;6.70;100.00;96671.78;4971671;28;20078;-69
2021/12/29 03:02:46;;;;;;;5.85;1.17;;;7.70;99.90;;;6.70;100.00;96678.66;4973238;28;20518;-69
2021/12/29 03:05:14;;;;;;;10.15;2.05;;;7.80;99.90;;;6.63;100.00;96670.34;4974014;28;20074;-69
2021/12/29 03:07:42;;;;;;;6.55;1.27;;;7.70;99.90;;;6.70;100.00;96678.66;4972814;28;20122;-69
2021/12/29 03:10:10;;;;;;;5.28;1.10;;;7.70;99.90;;;6.74;100.00;96674.22;4973447;28;20050;-69
2021/12/29 03:12:37;;;;;;;11.38;1.05;;;7.70;99.90;;;6.66;100.00;96674.53;4973433;28;20057;-69
2021/12/29 03:15:04;;;;;;;10.63;1.17;;;7.70;99.90;;;6.63;100.00;96675.50;4974984;28;21343;-69
2021/12/29 03:17:32;;;;;;;7.80;1.35;;;7.70;99.90;;;6.63;100.00;96682.41;4973990;28;20051;-69
2021/12/29 03:19:59;;;;;;;9.30;1.27;;;7.70;99.90;;;6.63;100.00;96684.97;4973245;28;20371;-69
2021/12/29 03:22:26;;;;;;;7.25;1.27;;;7.70;99.90;;;6.74;100.00;96684.53;4972833;28;20125;-70
2021/12/29 03:24:54;;;;;;;11.65;2.33;;;7.70;99.90;;;6.71;100.00;96690.66;4973077;28;20500;-69
2021/12/29 03:27:25;;;;;;;8.45;1.65;;;7.70;99.90;;;6.67;100.00;96687.38;4971674;28;20133;-69
2021/12/29 03:29:55;;;;;;;7.28;1.30;;;7.80;99.90;;;6.70;100.00;96669.22;4975416;28;20070;-69
2021/12/29 03:32:37;;;;;;;9.85;1.45;;;7.70;99.90;;;6.73;100.00;96688.88;4971558;28;20078;-69
2021/12/29 03:35:05;;;;;;;7.53;1.38;;;7.70;99.90;;;6.69;100.00;96679.56;4972629;28;20058;-69
2021/12/29 03:37:38;;;;;;;8.27;1.48;;;7.70;99.90;;;6.65;100.00;96680.59;4969562;28;20105;-70
2021/12/29 03:40:06;;;;;;;8.75;1.35;;;7.70;99.90;;;6.64;100.00;96712.47;4970225;28;20534;-69
2021/12/29 03:42:34;;;;;;;10.77;1.50;;;7.70;99.90;;;6.69;100.00;96684.75;4968868;28;20050;-70
2021/12/29 03:45:03;;;;;;;9.45;1.77;;;7.70;99.90;;;6.66;100.00;96690.00;4971916;28;20051;-69
2021/12/29 03:47:32;;;;;;;5.57;1.50;;;7.70;99.90;;;6.66;100.00;96703.75;4972516;28;20046;-69
2021/12/29 03:49:59;;;;;;;8.15;1.63;;;7.70;99.90;;;6.69;100.00;96702.78;4972736;28;20058;-70
2021/12/29 03:52:28;;;;;;;6.13;1.50;;;7.70;99.90;;;6.67;100.00;96707.16;4971982;28;20136;-69
2021/12/29 03:54:58;;;;;;;10.02;1.65;;;7.70;99.90;;;6.70;100.00;96704.44;4971544;28;20473;-69
2021/12/29 03:57:26;;;;;;;8.40;1.40;;;7.70;99.90;;;6.66;100.00;96708.06;4971405;28;20058;-69
2021/12/29 03:59:54;;;;;;;8.35;2.15;;;7.70;99.90;;;6.74;100.00;96708.59;4972388;28;20472;-69
2021/12/29 04:02:21;;;;;;;7.38;1.40;;;7.70;99.90;;;6.72;100.00;96718.13;4972551;28;20073;-69
2021/12/29 04:04:49;;;;;;;8.45;2.20;;;7.60;99.90;;;6.74;100.00;96716.31;4975635;28;20050;-70
2021/12/29 04:07:20;;;;;;;6.07;1.60;;;7.70;99.90;;;6.77;100.00;96710.19;4972696;28;20192;-69
2021/12/29 04:09:48;;;;;;;12.57;1.77;;;7.70;99.90;;;6.85;100.00;96726.22;4971372;28;20054;-69
2021/12/29 04:12:15;;;;;;;6.35;1.65;;;7.70;99.90;;;6.74;100.00;96736.13;4967472;28;20154;-70
2021/12/29 04:14:45;;;;;;;5.22;1.15;;;7.70;99.90;;;6.76;100.00;96748.06;4968999;28;20054;-69
2021/12/29 04:17:15;;;;;;;6.20;1.30;;;7.80;99.90;;;6.77;100.00;96728.25;4971167;28;20050;-69
2021/12/29 04:22:32;;;;;;;5.25;1.15;;;7.80;99.90;;;6.77;100.00;96736.81;4967562;28;20105;-70
2021/12/29 04:25:04;;;;;;;7.35;1.02;;;7.70;99.90;;;6.75;100.00;96733.50;4971098;28;20500;-69
2021/12/29 04:27:32;;;;;;;8.82;1.23;;;7.80;99.90;;;6.76;100.00;96745.47;4966596;28;20074;-70
2021/12/29 04:29:59;;;;;;;7.95;1.45;;;7.80;99.90;;;6.82;100.00;96739.22;4968822;28;20067;-69
2021/12/29 04:32:26;;;;;;;6.15;1.30;;;7.80;99.90;;;6.81;100.00;96740.97;4969568;28;20125;-69
2021/12/29 04:34:57;;;;;;;7.90;1.42;;;7.80;99.90;;;6.78;100.00;96732.53;4968244;28;20150;-69
2021/12/29 04:37:24;;;;;;;6.80;1.80;;;7.80;99.90;;;6.76;100.00;96757.53;4971091;28;20074;-70
2021/12/29 04:39:52;;;;;;;6.60;1.10;;;7.80;99.90;;;6.83;100.00;96752.06;4971635;28;20513;-69
2021/12/29 04:42:19;;;;;;;7.75;1.30;;;7.80;99.90;;;6.80;100.00;96766.84;4970308;28;20922;-69
2021/12/29 04:44:46;;;;;;;8.05;1.15;;;7.80;99.90;;;6.78;100.00;96763.47;4970452;28;20138;-69
2021/12/29 04:47:14;;;;;;;7.95;1.35;;;7.90;99.90;;;6.79;100.00;96771.13;4971531;28;20145;-69
2021/12/29 04:49:43;;;;;;;7.60;1.30;;;7.80;99.90;;;6.85;100.00;96772.63;4972466;28;20054;-69
2021/12/29 04:52:14;;;;;;;6.28;1.08;;;7.90;99.90;;;6.84;100.00;96771.81;4972543;28;20487;-70
2021/12/29 04:54:41;;;;;;;11.10;1.10;;;7.80;99.90;;;6.78;100.00;96768.63;4973545;28;20468;-69
2021/12/29 04:57:12;;;;;;;10.55;1.20;;;7.80;99.90;;;6.81;100.00;96778.81;4968667;28;20457;-69
2021/12/29 04:59:39;;;;;;;7.03;1.02;;;7.80;99.90;;;6.90;100.00;96776.69;4971173;28;20142;-69
2021/12/29 05:02:18;;;;;;;7.22;1.05;;;7.80;99.90;;;6.97;100.00;96789.34;4971034;28;20046;-69
2021/12/29 05:04:56;;;;;;;8.52;1.63;;;7.80;99.90;;;6.78;100.00;96805.56;4974780;28;20054;-69
2021/12/29 05:10:11;;;;;;;6.05;1.00;;;7.90;99.90;;;6.84;100.00;96807.06;4970180;28;20062;-69
2021/12/29 05:12:39;;;;;;;6.85;1.45;;;7.90;99.90;;;6.80;100.00;96803.78;4970854;28;20046;-69
2021/12/29 05:15:09;;;;;;;6.28;1.27;;;7.90;99.90;;;6.86;100.00;96806.09;4969560;28;20149;-69
2021/12/29 05:17:36;;;;;;;10.35;1.50;;;7.90;99.90;;;6.78;100.00;96804.75;4968851;28;20130;-69
2021/12/29 05:20:05;;;;;;;6.50;1.20;;;7.90;99.90;;;6.83;100.00;96828.59;4970917;28;20101;-69
2021/12/29 05:22:32;;;;;;;7.10;1.67;;;7.90;99.90;;;6.82;100.00;96814.00;4970482;28;20105;-69
2021/12/29 05:24:59;;;;;;;9.88;1.23;;;8.00;99.90;;;6.83;100.00;96815.72;4970718;28;20054;-69
2021/12/29 05:27:30;;;;;;;5.80;1.08;;;7.90;99.90;;;6.77;100.00;96824.50;4969284;28;20089;-69
2021/12/29 05:30:02;;;;;;;8.73;1.25;;;7.90;99.90;;;6.84;100.00;96814.78;4971340;28;20266;-69
2021/12/29 05:32:32;;;;;;;9.32;1.38;;;8.00;99.90;;;6.80;100.00;96823.59;4970628;28;20062;-69
2021/12/29 05:35:00;;;;;;;5.18;1.45;;;7.90;99.90;;;6.79;100.00;96816.72;4970385;28;20055;-69
2021/12/29 05:37:28;;;;;;;6.60;1.10;;;7.90;99.90;;;6.79;100.00;96809.00;4974787;28;20071;-69
2021/12/29 05:39:55;;;;;;;7.05;1.10;;;7.90;99.90;;;6.74;100.00;96808.34;4969411;28;20158;-70
2021/12/29 05:42:23;;;;;;;6.93;1.73;;;7.90;99.90;;;6.65;100.00;96814.69;4970898;28;20537;-69
2021/12/29 05:44:51;;;;;;;6.40;1.00;;;7.90;99.90;;;6.73;100.00;96815.25;4968548;28;20403;-69
2021/12/29 05:47:18;;;;;;;6.43;1.25;;;7.90;99.90;;;6.80;100.00;96806.34;4973682;28;20082;-69
2021/12/29 05:49:46;;;;;;;5.93;1.20;;;7.90;99.90;;;6.83;100.00;96808.81;4966808;28;20061;-69
2021/12/29 05:52:15;;;;;;;6.07;1.40;;;7.80;99.90;;;6.77;100.00;96813.38;4972572;28;20049;-69
2021/12/29 05:54:43;;;;;;;10.93;1.23;;;7.80;99.90;;;6.78;100.00;96812.47;4969875;28;20057;-70
2021/12/29 05:57:11;;;;;;;7.35;1.17;;;7.80;99.90;;;6.69;100.00;96824.81;4963208;28;20059;-69
2021/12/29 05:59:38;;;;;;;8.15;1.33;;;7.80;99.90;;;6.68;100.00;96830.91;4969842;28;20051;-69
2021/12/29 06:02:05;;;;;;;4.78;1.40;;;7.80;99.90;;;6.67;100.00;96836.94;4970315;28;20047;-69
2021/12/29 06:04:36;;;;;;;7.50;1.50;;;7.80;99.90;;;6.64;100.00;96838.81;4969395;28;20047;-69
2021/12/29 06:07:03;;;;;;;8.73;1.85;;;7.80;99.90;;;6.67;100.00;96830.94;4975940;28;20093;-69
2021/12/29 06:09:30;;;;;;;9.20;2.03;;;7.70;99.90;;;6.67;100.00;96841.25;4969282;28;20063;-69
2021/12/29 06:11:58;;;;;;;6.03;1.30;;;7.70;99.90;;;6.69;100.00;96842.03;4971387;28;20113;-69
2021/12/29 06:14:25;;;;;;;9.93;1.60;;;7.70;99.90;;;6.62;100.00;96846.59;4970523;28;20061;-69
2021/12/29 06:16:53;;;;;;;10.05;1.75;;;7.70;99.90;;;6.69;100.00;96866.09;4970730;28;20404;-69
2021/12/29 06:19:21;;;;;;;5.45;1.20;;;7.80;99.90;;;6.69;100.00;96858.34;4969821;28;20042;-69
2021/12/29 06:21:49;;;;;;;5.70;1.40;;;7.80;99.90;;;6.68;100.00;96868.72;4980895;28;20058;-69
2021/12/29 06:24:16;;;;;;;7.18;1.70;;;7.80;99.90;;;6.65;100.00;96863.69;4968335;28;20098;-69
2021/12/29 06:26:44;;;;;;;6.65;1.20;;;7.70;99.90;;;6.66;100.00;96865.34;4969420;28;20537;-69
2021/12/29 06:29:12;;;;;;;6.90;1.60;;;7.70;99.90;;;6.65;100.00;96868.84;4969067;28;20137;-69
2021/12/29 06:31:39;;;;;;;11.68;2.35;;;7.80;99.90;;;6.65;100.00;96872.25;4973993;28;20130;-69
2021/12/29 06:34:06;;;;;;;7.03;1.70;;;7.80;99.90;;;6.67;100.00;96864.47;4973604;28;20472;-69
2021/12/29 06:36:38;;;;;;;10.27;1.63;;;7.70;99.90;;;6.67;100.00;96865.31;4975503;28;20047;-69
2021/12/29 06:39:05;;;;;;;5.82;1.67;;;7.70;99.90;;;6.65;100.00;96877.41;4973646;28;20053;-69
2021/12/29 06:41:33;;;;;;;8.32;1.70;;;7.70;99.90;;;6.63;100.00;96875.78;4973951;28;20043;-69
2021/12/29 06:44:01;;;;;;;8.18;1.38;;;7.70;99.90;;;6.62;100.00;96885.28;4976069;28;20053;-69
2021/12/29 06:46:29;;;;;;;9.68;1.58;;;7.70;99.90;;;6.63;100.00;96883.53;4974714;28;20046;-70
2021/12/29 06:48:56;;;;;;;8.07;1.63;;;7.80;99.90;;;6.65;100.00;96897.22;4974072;28;20050;-69
2021/12/29 06:51:23;;;;;;;7.68;1.33;;;7.80;99.90;;;6.67;100.00;96896.25;4974979;28;20058;-69
2021/12/29 06:53:51;;;;;;;5.82;1.30;;;7.80;99.90;;;6.71;100.00;96891.84;4973395;28;20530;-69
2021/12/29 06:56:19;;;;;;;12.40;1.92;;;7.80;99.90;;;6.72;100.00;96896.06;4972246;28;20089;-69
2021/12/29 06:58:47;;;;;;;12.57;1.98;;;7.70;99.90;;;6.64;100.00;96906.69;4968406;28;20102;-69
2021/12/29 07:01:16;;;;;;;7.70;1.50;;;7.70;99.90;;;6.68;100.00;96908.28;4975385;28;20420;-69
2021/12/29 07:03:44;;;;;;;7.25;1.45;;;7.80;99.90;;;6.74;100.00;96908.94;4972133;28;20039;-69
2021/12/29 07:06:11;;;;;;;7.57;1.20;;;7.80;99.90;;;6.70;100.00;96911.63;4973820;28;20177;-69
2021/12/29 07:08:40;;;;;;;12.70;1.77;;;7.80;99.90;;;6.72;100.00;96915.88;4974148;28;20047;-69
2021/12/29 07:11:09;;;;;;;11.45;2.38;;;7.80;99.90;;;6.76;100.00;96920.03;4972128;28;20054;-70
2021/12/29 07:13:36;;;;;;;10.57;2.33;;;7.80;99.90;;;6.72;100.00;96921.88;4971808;28;20055;-69
2021/12/29 07:16:04;;;;;;;9.73;1.80;;;7.80;99.90;;;6.73;100.00;96921.00;4973186;28;20511;-70
2021/12/29 07:18:32;;;;;;;10.82;1.88;;;7.80;99.90;;;6.70;100.00;96918.50;4973049;28;20456;-69
2021/12/29 07:20:59;;;;;;;6.40;1.60;;;7.80;99.90;;;6.69;100.00;96916.84;4973023;28;20515;-69
2021/12/29 07:23:27;;;;;;;12.73;1.90;;;7.80;99.90;;;6.75;100.00;96928.66;4972224;28;20086;-69
2021/12/29 07:25:54;;;;;;;10.00;1.70;;;7.80;99.90;;;6.70;100.00;96932.25;4975197;28;20138;-69
2021/12/29 07:28:22;;;;;;;14.13;2.33;;;7.80;99.90;;;6.63;100.00;96924.78;4970957;28;20054;-69
2021/12/29 07:30:49;;;;;;;15.48;2.03;;;7.80;99.90;;;6.68;100.00;96938.34;4972883;28;20415;-69
2021/12/29 07:33:16;;;;;;;11.63;2.85;;;7.80;99.90;;;6.80;100.00;96929.34;4972812;28;20051;-70
2021/12/29 07:35:44;;;;;;;11.95;2.00;;;7.80;99.90;;;6.66;100.00;96937.56;4972763;28;20149;-69
2021/12/29 07:38:11;;;;;;;15.07;2.30;;;7.80;99.90;;;6.61;100.00;96927.41;4974106;28;20573;-70
2021/12/29 07:40:39;;;;;;;14.45;2.80;;;7.80;99.90;;;6.64;100.00;96945.38;4971236;28;20082;-69
2021/12/29 07:43:06;;;;;;;12.70;2.53;;;7.80;99.90;;;6.67;100.00;96945.25;4973993;28;20476;-70
2021/12/29 07:45:34;;;;;;;12.73;3.00;;;7.70;99.90;;;6.55;100.00;96947.47;4975094;28;20093;-69
2021/12/29 07:48:04;;;;;;;16.90;2.78;;;7.70;99.90;;;6.56;100.00;96959.44;4970524;28;20432;-69
2021/12/29 07:50:32;;;;;;;12.30;2.78;;;7.70;99.90;;;6.59;100.00;96955.03;4972226;28;20483;-69
2021/12/29 07:52:59;;;;;;;17.67;4.03;;;7.80;99.90;;;6.52;100.00;96950.13;4969704;28;20058;-69
2021/12/29 07:55:29;;;;;;;15.27;2.90;;;7.80;99.90;;;6.63;100.00;96958.31;4971760;28;20456;-69
2021/12/29 07:57:58;;;;;;;19.10;5.10;;;7.70;99.90;;;6.60;100.00;96966.19;4971420;28;20057;-69
2021/12/29 08:00:26;;;;;;;17.42;3.20;;;7.80;99.90;;;6.66;100.00;96961.63;4970674;28;20042;-70
2021/12/29 08:02:56;;;;;;;17.48;3.30;;;7.80;99.90;;;6.73;100.00;96958.81;4972226;28;20082;-69
2021/12/29 08:05:24;;;;;;;20.77;4.30;;;7.80;99.90;;;6.76;100.00;96963.88;4971591;28;20361;-70
2021/12/29 08:07:51;;;;;;;25.17;8.02;;;7.90;99.90;;;6.70;100.00;96968.38;4971036;28;20439;-70
2021/12/29 08:10:19;;;;;;;15.35;4.65;;;7.90;99.90;;;6.74;100.00;96965.66;4975118;28;20054;-69
2021/12/29 08:12:49;;;;;;;24.98;5.90;;;7.90;99.90;;;6.77;100.00;96965.53;4970551;28;20094;-69
2021/12/29 08:15:17;;;;;;;15.60;3.50;;;7.90;99.90;;;6.77;100.00;96968.13;4970492;28;20055;-69
2021/12/29 08:17:49;;;;;;;19.88;4.28;;;7.90;99.90;;;6.78;100.00;96962.09;4971761;28;20458;-69
2021/12/29 08:20:17;;;;;;;17.85;2.58;;;7.90;99.90;;;6.73;100.00;96959.69;4970305;28;20490;-69
2021/12/29 08:22:45;;;;;;;13.07;3.03;;;7.90;99.90;;;6.75;100.00;96975.94;4972212;28;20139;-69
2021/12/29 08:25:12;;;;;;;14.50;2.45;;;8.00;99.90;;;6.82;100.00;96951.59;4972558;28;20050;-69
2021/12/29 08:27:40;;;;;;;12.45;3.17;;;8.00;99.90;;;6.78;100.00;96951.75;4971475;28;20055;-69
2021/12/29 08:30:08;;;;;;;12.57;2.25;;;8.00;99.90;;;6.87;100.00;96964.31;4969282;28;20113;-69
2021/12/29 08:32:36;;;;;;;20.20;3.70;;;8.00;99.90;;;6.72;100.00;96967.47;4969415;28;20051;-69
2021/12/29 08:35:04;;;;;;;16.42;2.58;;;8.10;99.90;;;6.79;100.00;96972.31;4971187;28;20051;-69
2021/12/29 08:37:32;;;;;;;16.75;2.78;;;8.00;99.90;;;6.70;100.00;96978.69;4971212;28;20055;-70
2021/12/29 08:40:01;;;;;;;11.32;2.63;;;8.10;99.90;;;6.95;100.00;96980.34;4971199;28;20050;-69
2021/12/29 08:42:31;;;;;;;16.60;2.88;;;8.10;99.90;;;6.95;100.00;96975.16;4973321;28;20054;-69
2021/12/29 08:44:59;;;;;;;15.32;2.97;;;8.00;99.90;;;6.94;100.00;96968.34;4972281;28;20134;-69
2021/12/29 08:47:27;;;;;;;19.17;2.65;;;8.00;99.90;;;6.83;100.00;96970.47;4971373;28;20047;-69
2021/12/29 08:49:54;;;;;;;13.55;3.00;;;8.10;99.90;;;6.96;100.00;96966.56;4970570;28;20149;-69
2021/12/29 08:52:22;;;;;;;13.07;2.20;;;8.10;99.90;;;6.91;100.00;96983.91;4968585;28;20492;-69
2021/12/29 08:54:51;;;;;;;16.92;2.80;;;8.10;99.90;;;6.94;100.00;96983.81;4970606;28;20434;-69
2021/12/29 08:57:19;;;;;;;10.32;1.77;;;8.10;99.90;;;6.97;100.00;96978.53;4972421;28;20047;-70
2021/12/29 08:59:52;;;;;;;9.70;2.20;;;8.10;99.90;;;6.84;100.00;96977.31;4970199;28;20484;-69
2021/12/29 09:02:19;;;;;;;11.00;2.33;;;8.10;99.90;;;6.94;100.00;96972.66;4969605;28;20101;-69
2021/12/29 09:04:47;;;;;;;11.57;1.83;;;8.20;99.90;;;7.07;100.00;96979.03;4971131;28;20070;-69
2021/12/29 09:07:17;;;;;;;15.75;3.78;;;8.20;99.90;;;7.14;100.00;96977.91;4972949;28;20054;-69
2021/12/29 09:09:45;;;;;;;10.15;2.53;;;8.10;99.90;;;7.21;100.00;96979.34;4969282;28;20051;-70
2021/12/29 09:12:12;;;;;;;17.90;2.72;;;8.10;99.90;;;7.05;100.00;96988.59;4970782;28;20097;-70
2021/12/29 09:14:39;;;;;;;10.73;2.25;;;8.20;99.90;;;6.96;100.00;96994.09;4970519;28;20511;-70
2021/12/29 09:17:08;;;;;;;13.23;2.58;;;8.20;99.90;;;6.99;100.00;97002.53;4970827;28;20054;-70
2021/12/29 09:19:39;;;;;;;8.88;2.42;;;8.20;99.90;;;7.03;100.00;96993.78;4970442;28;20090;-69
2021/12/29 09:22:10;;;;;;;10.55;1.88;;;8.20;99.90;;;7.12;100.00;97001.19;4972746;28;20121;-69
2021/12/29 09:24:38;;;;;;;9.05;1.65;;;8.20;99.90;;;7.05;100.00;96998.91;4970627;28;20050;-70
2021/12/29 09:27:06;;;;;;;7.63;1.48;;;8.20;99.90;;;7.08;100.00;97004.78;4968535;28;20047;-69
2021/12/29 09:29:34;;;;;;;11.27;2.35;;;8.20;99.90;;;7.14;100.00;97006.31;4969018;28;20039;-69
2021/12/29 09:32:05;;;;;;;10.77;1.90;;;8.10;99.90;;;7.04;100.00;97012.69;4969580;28;20182;-70
2021/12/29 09:34:35;;;;;;;14.18;2.17;;;8.20;99.90;;;7.01;100.00;97007.66;4971055;28;20063;-70
2021/12/29 09:37:05;;;;;;;10.18;1.52;;;8.20;99.90;;;7.01;100.00;97008.50;4970158;28;20055;-70
2021/12/29 09:39:32;;;;;;;11.90;2.25;;;8.20;99.90;;;7.15;100.00;97002.81;4967448;28;20055;-70
2021/12/29 09:42:00;;;;;;;10.43;2.40;;;8.20;99.90;;;7.19;100.00;96998.38;4969792;28;20046;-69
2021/12/29 09:44:30;;;;;;;9.60;1.52;;;8.20;99.90;;;7.26;100.00;96999.81;4970608;28;20050;-69
2021/12/29 09:46:58;;;;;;;12.00;1.60;;;8.30;99.90;;;7.06;100.00;96998.00;4970220;28;20078;-70
2021/12/29 09:49:26;;;;;;;9.38;2.30;;;8.30;99.90;;;7.00;100.00;96998.22;4969043;28;20058;-69
2021/12/29 09:51:53;;;;;;;13.43;1.95;;;8.20;99.90;;;7.06;100.00;96992.84;4971047;28;20082;-69
2021/12/29 09:54:21;;;;;;;16.20;2.17;;;8.20;99.90;;;6.94;100.00;96998.47;4969321;28;20101;-69
2021/12/29 09:56:48;;;;;;;5.75;1.73;;;8.20;99.90;;;7.03;100.00;96990.38;4970322;28;20176;-69
2021/12/29 09:59:16;;;;;;;9.45;1.92;;;8.20;99.90;;;7.05;100.00;96991.16;4967947;28;20109;-70
2021/12/29 10:01:44;;;;;;;9.93;2.00;;;8.20;99.90;;;7.06;100.00;96990.25;4972533;28;20523;-70
2021/12/29 10:04:13;;;;;;;6.10;1.30;;;8.20;99.90;;;7.08;100.00;96989.28;4969286;28;20153;-69
2021/12/29 10:06:41;;;;;;;5.35;2.00;;;8.20;99.90;;;6.99;100.00;96999.97;4971382;28;20185;-69
2021/12/29 10:09:19;;;;;;;6.90;2.20;;;8.10;99.90;;;6.95;100.00;96989.81;4971363;28;20138;-69
2021/12/29 10:11:47;;;;;;;4.65;1.63;;;8.10;99.90;;;6.95;100.00;96990.66;4962828;28;20445;-70
2021/12/29 10:14:17;;;;;;;11.90;3.00;;;8.10;99.90;;;6.97;100.00;96983.69;4968358;28;20387;-69
2021/12/29 10:16:49;;;;;;;12.07;3.45;;;8.10;99.90;;;6.94;100.00;96983.81;4964301;28;20463;-69
2021/12/29 10:19:17;;;;;;;6.60;2.60;;;8.10;99.90;;;7.00;100.00;96990.47;4948989;28;20205;-69
2021/12/29 10:21:48;;;;;;;10.98;3.80;;;8.10;99.90;;;7.02;100.00;96991.25;4970348;28;20050;-69
2021/12/29 10:24:19;;;;;;;8.68;2.70;;;8.10;99.90;;;6.95;100.00;96992.41;4970170;28;20050;-69
2021/12/29 10:26:50;;;;;;;10.75;2.78;;;8.10;99.90;;;6.99;100.00;96991.38;4967867;28;20051;-69
2021/12/29 10:29:21;;;;;;;9.10;2.20;;;8.10;99.90;;;7.12;100.00;96996.03;4969513;28;20050;-69
2021/12/29 10:32:06;;;;;;;9.10;2.20;;;8.20;99.90;;;7.15;100.00;96999.41;4969699;28;20050;-69
2021/12/29 10:34:33;;;;;;;6.88;2.47;;;8.20;99.90;;;7.13;100.00;97002.03;4969147;28;20058;-70
2021/12/29 10:37:07;;;;;;;8.32;1.67;;;8.20;99.90;;;7.17;100.00;96988.09;4970299;28;20141;-70